sensor_id;sensor_type;location;lat;lon;timestamp;P1;durP1;ratioP1;P2;durP2;ratioP2
26822;SDS011;14852;51.910;8.878;2022-08-05T00:01:13;4.70;;;3.10;;
26822;SDS011;14852;51.910;8.878;2022-08-05T00:03:40;3.60;;;2.25;;
26822;SDS011;14852;51.910;8.878;2022-08-05T00:06:06;2.90;;;2.15;;
26822;SDS011;14852;51.910;8.878;2022-08-05T00:08:33;3.90;;;2.53;;
26822;SDS011;14852;51.910;8.878;2022-08-05T00:11:00;4.20;;;2.63;;
26822;SDS011;14852;51.910;8.878;2022-08-05T00:13:30;3.17;;;2.00;;
26822;SDS011;14852;51.910;8.878;2022-08-05T00:15:57;3.45;;;2.35;;
26822;SDS011;14852;51.910;8.878;2022-08-05T00:18:23;4.10;;;2.20;;
26822;SDS011;14852;51.910;8.878;2022-08-05T00:20:49;3.15;;;2.28;;
26822;SDS011;14852;51.910;8.878;2022-08-05T00:23:15;3.83;;;2.90;;
26822;SDS011;14852;51.910;8.878;2022-08-05T00:25:41;3.85;;;2.03;;
26822;SDS011;14852;51.910;8.878;2022-08-05T00:28:07;5.90;;;2.58;;
26822;SDS011;14852;51.910;8.878;2022-08-05T00:30:33;6.38;;;2.83;;
26822;SDS011;14852;51.910;8.878;2022-08-05T00:32:58;3.63;;;2.53;;
26822;SDS011;14852;51.910;8.878;2022-08-05T00:35:24;4.72;;;2.58;;
26822;SDS011;14852;51.910;8.878;2022-08-05T00:37:50;4.03;;;2.53;;
26822;SDS011;14852;51.910;8.878;2022-08-05T00:40:16;4.25;;;2.63;;
26822;SDS011;14852;51.910;8.878;2022-08-05T00:42:43;7.20;;;3.10;;
26822;SDS011;14852;51.910;8.878;2022-08-05T00:45:09;3.25;;;2.58;;
26822;SDS011;14852;51.910;8.878;2022-08-05T00:47:35;5.43;;;2.80;;
26822;SDS011;14852;51.910;8.878;2022-08-05T00:50:01;4.53;;;2.70;;
26822;SDS011;14852;51.910;8.878;2022-08-05T00:52:26;6.32;;;2.72;;
26822;SDS011;14852;51.910;8.878;2022-08-05T00:54:52;3.90;;;2.60;;
26822;SDS011;14852;51.910;8.878;2022-08-05T00:57:18;4.57;;;2.50;;
26822;SDS011;14852;51.910;8.878;2022-08-05T00:59:44;5.13;;;2.80;;
26822;SDS011;14852;51.910;8.878;2022-08-05T01:02:09;4.70;;;2.80;;
26822;SDS011;14852;51.910;8.878;2022-08-05T01:04:35;7.75;;;3.28;;
26822;SDS011;14852;51.910;8.878;2022-08-05T01:07:01;4.25;;;2.72;;
26822;SDS011;14852;51.910;8.878;2022-08-05T01:09:27;3.70;;;2.72;;
26822;SDS011;14852;51.910;8.878;2022-08-05T01:11:54;6.82;;;3.83;;
26822;SDS011;14852;51.910;8.878;2022-08-05T01:14:24;5.38;;;2.53;;
26822;SDS011;14852;51.910;8.878;2022-08-05T01:17:09;4.82;;;2.88;;
26822;SDS011;14852;51.910;8.878;2022-08-05T01:22:30;5.68;;;3.30;;
26822;SDS011;14852;51.910;8.878;2022-08-05T01:25:34;3.80;;;2.60;;
26822;SDS011;14852;51.910;8.878;2022-08-05T01:28:36;3.95;;;2.90;;
26822;SDS011;14852;51.910;8.878;2022-08-05T01:31:28;4.70;;;3.10;;
26822;SDS011;14852;51.910;8.878;2022-08-05T01:37:23;4.07;;;3.17;;
26822;SDS011;14852;51.910;8.878;2022-08-05T01:39:59;7.60;;;3.85;;
26822;SDS011;14852;51.910;8.878;2022-08-05T01:42:26;5.78;;;3.47;;
26822;SDS011;14852;51.910;8.878;2022-08-05T01:44:55;6.32;;;3.78;;
26822;SDS011;14852;51.910;8.878;2022-08-05T01:47:24;4.07;;;3.42;;
26822;SDS011;14852;51.910;8.878;2022-08-05T01:49:52;4.22;;;3.47;;
26822;SDS011;14852;51.910;8.878;2022-08-05T01:52:19;4.32;;;3.33;;
26822;SDS011;14852;51.910;8.878;2022-08-05T01:54:51;4.45;;;3.60;;
26822;SDS011;14852;51.910;8.878;2022-08-05T01:57:25;5.00;;;3.53;;
26822;SDS011;14852;51.910;8.878;2022-08-05T02:00:06;4.18;;;3.45;;
26822;SDS011;14852;51.910;8.878;2022-08-05T02:02:37;5.07;;;3.22;;
26822;SDS011;14852;51.910;8.878;2022-08-05T02:05:08;4.53;;;2.88;;
26822;SDS011;14852;51.910;8.878;2022-08-05T02:07:38;5.47;;;3.60;;
26822;SDS011;14852;51.910;8.878;2022-08-05T02:10:07;5.50;;;3.40;;
26822;SDS011;14852;51.910;8.878;2022-08-05T02:15:35;4.65;;;3.47;;
26822;SDS011;14852;51.910;8.878;2022-08-05T02:18:31;5.30;;;3.17;;
26822;SDS011;14852;51.910;8.878;2022-08-05T02:24:38;4.60;;;2.67;;
26822;SDS011;14852;51.910;8.878;2022-08-05T02:27:10;4.28;;;3.35;;
26822;SDS011;14852;51.910;8.878;2022-08-05T02:29:37;3.80;;;2.53;;
26822;SDS011;14852;51.910;8.878;2022-08-05T02:32:07;3.08;;;2.15;;
26822;SDS011;14852;51.910;8.878;2022-08-05T02:34:35;2.78;;;1.90;;
26822;SDS011;14852;51.910;8.878;2022-08-05T02:37:02;2.30;;;2.00;;
26822;SDS011;14852;51.910;8.878;2022-08-05T02:39:34;3.40;;;2.00;;
26822;SDS011;14852;51.910;8.878;2022-08-05T02:42:03;3.33;;;2.88;;
26822;SDS011;14852;51.910;8.878;2022-08-05T02:44:31;3.63;;;2.67;;
26822;SDS011;14852;51.910;8.878;2022-08-05T02:47:00;6.05;;;2.70;;
26822;SDS011;14852;51.910;8.878;2022-08-05T02:49:30;3.03;;;2.63;;
26822;SDS011;14852;51.910;8.878;2022-08-05T02:52:01;2.28;;;2.08;;
26822;SDS011;14852;51.910;8.878;2022-08-05T02:54:28;4.45;;;2.17;;
26822;SDS011;14852;51.910;8.878;2022-08-05T02:56:55;3.08;;;2.50;;
26822;SDS011;14852;51.910;8.878;2022-08-05T02:59:21;2.30;;;2.10;;
26822;SDS011;14852;51.910;8.878;2022-08-05T03:01:50;3.47;;;2.15;;
26822;SDS011;14852;51.910;8.878;2022-08-05T03:04:22;2.83;;;2.20;;
26822;SDS011;14852;51.910;8.878;2022-08-05T03:06:48;3.30;;;2.28;;
26822;SDS011;14852;51.910;8.878;2022-08-05T03:09:14;3.85;;;2.20;;
26822;SDS011;14852;51.910;8.878;2022-08-05T03:11:41;3.42;;;2.30;;
26822;SDS011;14852;51.910;8.878;2022-08-05T03:14:07;3.72;;;2.25;;
26822;SDS011;14852;51.910;8.878;2022-08-05T03:16:34;2.53;;;1.75;;
26822;SDS011;14852;51.910;8.878;2022-08-05T03:19:00;4.80;;;2.05;;
26822;SDS011;14852;51.910;8.878;2022-08-05T03:21:26;3.35;;;2.40;;
26822;SDS011;14852;51.910;8.878;2022-08-05T03:23:52;2.85;;;2.08;;
26822;SDS011;14852;51.910;8.878;2022-08-05T03:26:18;2.42;;;2.17;;
26822;SDS011;14852;51.910;8.878;2022-08-05T03:28:44;2.50;;;2.30;;
26822;SDS011;14852;51.910;8.878;2022-08-05T03:31:10;3.22;;;2.40;;
26822;SDS011;14852;51.910;8.878;2022-08-05T03:33:37;4.45;;;2.35;;
26822;SDS011;14852;51.910;8.878;2022-08-05T03:36:03;3.42;;;2.33;;
26822;SDS011;14852;51.910;8.878;2022-08-05T03:38:30;2.83;;;2.10;;
26822;SDS011;14852;51.910;8.878;2022-08-05T03:40:55;2.38;;;2.08;;
26822;SDS011;14852;51.910;8.878;2022-08-05T03:43:21;3.75;;;2.50;;
26822;SDS011;14852;51.910;8.878;2022-08-05T03:45:51;5.10;;;2.53;;
26822;SDS011;14852;51.910;8.878;2022-08-05T03:48:18;3.88;;;2.42;;
26822;SDS011;14852;51.910;8.878;2022-08-05T03:59:06;2.70;;;2.40;;
26822;SDS011;14852;51.910;8.878;2022-08-05T04:01:38;4.13;;;2.22;;
26822;SDS011;14852;51.910;8.878;2022-08-05T04:04:08;2.65;;;2.30;;
26822;SDS011;14852;51.910;8.878;2022-08-05T04:06:36;4.88;;;2.47;;
26822;SDS011;14852;51.910;8.878;2022-08-05T04:09:03;4.75;;;2.33;;
26822;SDS011;14852;51.910;8.878;2022-08-05T04:11:30;4.57;;;2.65;;
26822;SDS011;14852;51.910;8.878;2022-08-05T04:13:57;6.00;;;3.25;;
26822;SDS011;14852;51.910;8.878;2022-08-05T04:16:24;6.85;;;3.30;;
26822;SDS011;14852;51.910;8.878;2022-08-05T04:18:51;5.78;;;3.15;;
26822;SDS011;14852;51.910;8.878;2022-08-05T04:21:17;3.58;;;3.00;;
26822;SDS011;14852;51.910;8.878;2022-08-05T04:23:43;4.63;;;3.38;;
26822;SDS011;14852;51.910;8.878;2022-08-05T04:26:09;6.25;;;3.50;;
26822;SDS011;14852;51.910;8.878;2022-08-05T04:28:37;7.43;;;4.03;;
26822;SDS011;14852;51.910;8.878;2022-08-05T04:31:02;5.15;;;3.63;;
26822;SDS011;14852;51.910;8.878;2022-08-05T04:33:28;8.75;;;3.90;;
26822;SDS011;14852;51.910;8.878;2022-08-05T04:35:55;6.47;;;4.72;;
26822;SDS011;14852;51.910;8.878;2022-08-05T04:38:20;10.10;;;6.32;;
26822;SDS011;14852;51.910;8.878;2022-08-05T04:40:46;10.43;;;6.57;;
26822;SDS011;14852;51.910;8.878;2022-08-05T04:43:12;9.73;;;6.85;;
26822;SDS011;14852;51.910;8.878;2022-08-05T04:45:38;12.07;;;8.15;;
26822;SDS011;14852;51.910;8.878;2022-08-05T04:48:08;11.07;;;8.13;;
26822;SDS011;14852;51.910;8.878;2022-08-05T04:50:39;10.02;;;8.82;;
26822;SDS011;14852;51.910;8.878;2022-08-05T04:53:09;12.38;;;10.45;;
26822;SDS011;14852;51.910;8.878;2022-08-05T04:55:38;17.08;;;11.40;;
26822;SDS011;14852;51.910;8.878;2022-08-05T04:58:05;15.43;;;10.85;;
26822;SDS011;14852;51.910;8.878;2022-08-05T05:00:34;12.15;;;10.43;;
26822;SDS011;14852;51.910;8.878;2022-08-05T05:03:01;11.52;;;9.60;;
26822;SDS011;14852;51.910;8.878;2022-08-05T05:05:29;15.35;;;10.93;;
26822;SDS011;14852;51.910;8.878;2022-08-05T05:07:59;12.20;;;10.30;;
26822;SDS011;14852;51.910;8.878;2022-08-05T05:10:31;10.85;;;9.70;;
26822;SDS011;14852;51.910;8.878;2022-08-05T05:13:02;14.98;;;10.13;;
26822;SDS011;14852;51.910;8.878;2022-08-05T05:15:28;15.63;;;11.18;;
26822;SDS011;14852;51.910;8.878;2022-08-05T05:17:54;12.00;;;9.68;;
26822;SDS011;14852;51.910;8.878;2022-08-05T05:20:20;9.77;;;8.10;;
26822;SDS011;14852;51.910;8.878;2022-08-05T05:22:46;10.00;;;8.15;;
26822;SDS011;14852;51.910;8.878;2022-08-05T05:25:11;11.52;;;9.45;;
26822;SDS011;14852;51.910;8.878;2022-08-05T05:27:39;14.70;;;10.13;;
26822;SDS011;14852;51.910;8.878;2022-08-05T05:30:05;12.70;;;9.43;;
26822;SDS011;14852;51.910;8.878;2022-08-05T05:32:31;13.32;;;10.10;;
26822;SDS011;14852;51.910;8.878;2022-08-05T05:34:57;11.50;;;9.30;;
26822;SDS011;14852;51.910;8.878;2022-08-05T05:37:23;12.55;;;11.25;;
26822;SDS011;14852;51.910;8.878;2022-08-05T05:39:48;14.02;;;11.57;;
26822;SDS011;14852;51.910;8.878;2022-08-05T05:42:14;13.88;;;10.70;;
26822;SDS011;14852;51.910;8.878;2022-08-05T05:44:40;12.50;;;11.30;;
26822;SDS011;14852;51.910;8.878;2022-08-05T05:47:06;13.50;;;11.20;;
26822;SDS011;14852;51.910;8.878;2022-08-05T05:49:31;12.82;;;11.38;;
26822;SDS011;14852;51.910;8.878;2022-08-05T05:51:57;11.98;;;10.73;;
26822;SDS011;14852;51.910;8.878;2022-08-05T05:54:23;11.57;;;10.20;;
26822;SDS011;14852;51.910;8.878;2022-08-05T05:56:49;10.98;;;9.82;;
26822;SDS011;14852;51.910;8.878;2022-08-05T05:59:14;14.27;;;10.38;;
26822;SDS011;14852;51.910;8.878;2022-08-05T06:01:41;13.60;;;9.27;;
26822;SDS011;14852;51.910;8.878;2022-08-05T06:04:07;12.48;;;10.05;;
26822;SDS011;14852;51.910;8.878;2022-08-05T06:06:36;10.60;;;9.32;;
26822;SDS011;14852;51.910;8.878;2022-08-05T06:09:02;11.55;;;9.68;;
26822;SDS011;14852;51.910;8.878;2022-08-05T06:11:33;10.98;;;9.85;;
26822;SDS011;14852;51.910;8.878;2022-08-05T06:13:59;11.68;;;9.30;;
26822;SDS011;14852;51.910;8.878;2022-08-05T06:16:25;10.18;;;8.90;;
26822;SDS011;14852;51.910;8.878;2022-08-05T06:18:52;8.80;;;7.97;;
26822;SDS011;14852;51.910;8.878;2022-08-05T06:21:17;10.30;;;9.20;;
26822;SDS011;14852;51.910;8.878;2022-08-05T06:23:43;9.10;;;8.25;;
26822;SDS011;14852;51.910;8.878;2022-08-05T06:26:09;9.23;;;8.32;;
26822;SDS011;14852;51.910;8.878;2022-08-05T06:28:35;8.20;;;7.35;;
26822;SDS011;14852;51.910;8.878;2022-08-05T06:31:01;9.80;;;7.78;;
26822;SDS011;14852;51.910;8.878;2022-08-05T06:33:27;12.00;;;9.32;;
26822;SDS011;14852;51.910;8.878;2022-08-05T06:35:53;10.05;;;7.53;;
26822;SDS011;14852;51.910;8.878;2022-08-05T06:38:19;7.28;;;6.57;;
26822;SDS011;14852;51.910;8.878;2022-08-05T06:40:45;9.35;;;7.35;;
26822;SDS011;14852;51.910;8.878;2022-08-05T06:43:11;9.65;;;7.05;;
26822;SDS011;14852;51.910;8.878;2022-08-05T06:45:37;10.25;;;6.70;;
26822;SDS011;14852;51.910;8.878;2022-08-05T06:48:03;8.18;;;6.90;;
26822;SDS011;14852;51.910;8.878;2022-08-05T06:50:29;9.82;;;7.40;;
26822;SDS011;14852;51.910;8.878;2022-08-05T06:52:55;10.85;;;6.97;;
26822;SDS011;14852;51.910;8.878;2022-08-05T06:55:21;11.57;;;6.50;;
26822;SDS011;14852;51.910;8.878;2022-08-05T06:57:47;7.32;;;6.35;;
26822;SDS011;14852;51.910;8.878;2022-08-05T07:00:12;7.15;;;6.32;;
26822;SDS011;14852;51.910;8.878;2022-08-05T07:02:42;8.07;;;7.10;;
26822;SDS011;14852;51.910;8.878;2022-08-05T07:05:09;9.82;;;8.23;;
26822;SDS011;14852;51.910;8.878;2022-08-05T07:07:36;8.68;;;7.40;;
26822;SDS011;14852;51.910;8.878;2022-08-05T07:10:07;8.30;;;7.50;;
26822;SDS011;14852;51.910;8.878;2022-08-05T07:12:34;8.55;;;7.65;;
26822;SDS011;14852;51.910;8.878;2022-08-05T07:15:18;9.48;;;7.78;;
26822;SDS011;14852;51.910;8.878;2022-08-05T07:18:03;10.70;;;8.55;;
26822;SDS011;14852;51.910;8.878;2022-08-05T07:20:30;9.13;;;8.20;;
26822;SDS011;14852;51.910;8.878;2022-08-05T07:22:56;12.10;;;9.45;;
26822;SDS011;14852;51.910;8.878;2022-08-05T07:25:22;9.30;;;8.30;;
26822;SDS011;14852;51.910;8.878;2022-08-05T07:27:48;9.15;;;8.15;;
26822;SDS011;14852;51.910;8.878;2022-08-05T07:30:16;10.82;;;8.90;;
26822;SDS011;14852;51.910;8.878;2022-08-05T07:32:41;9.80;;;8.82;;
26822;SDS011;14852;51.910;8.878;2022-08-05T07:35:08;10.27;;;8.60;;
26822;SDS011;14852;51.910;8.878;2022-08-05T07:37:37;9.13;;;8.13;;
26822;SDS011;14852;51.910;8.878;2022-08-05T07:40:04;9.30;;;8.30;;
26822;SDS011;14852;51.910;8.878;2022-08-05T07:42:32;10.27;;;8.02;;
26822;SDS011;14852;51.910;8.878;2022-08-05T07:44:58;9.45;;;8.30;;
26822;SDS011;14852;51.910;8.878;2022-08-05T07:47:24;10.35;;;9.05;;
26822;SDS011;14852;51.910;8.878;2022-08-05T07:49:50;10.68;;;8.88;;
26822;SDS011;14852;51.910;8.878;2022-08-05T07:52:19;10.82;;;9.30;;
26822;SDS011;14852;51.910;8.878;2022-08-05T07:54:45;11.27;;;9.35;;
26822;SDS011;14852;51.910;8.878;2022-08-05T07:57:11;10.65;;;8.60;;
26822;SDS011;14852;51.910;8.878;2022-08-05T07:59:37;9.85;;;8.70;;
26822;SDS011;14852;51.910;8.878;2022-08-05T08:02:03;11.18;;;8.80;;
26822;SDS011;14852;51.910;8.878;2022-08-05T08:04:29;9.65;;;8.65;;
26822;SDS011;14852;51.910;8.878;2022-08-05T08:06:54;9.55;;;8.63;;
26822;SDS011;14852;51.910;8.878;2022-08-05T08:09:20;9.15;;;8.20;;
26822;SDS011;14852;51.910;8.878;2022-08-05T08:11:48;9.05;;;7.63;;
26822;SDS011;14852;51.910;8.878;2022-08-05T08:14:14;8.82;;;7.93;;
26822;SDS011;14852;51.910;8.878;2022-08-05T08:16:40;8.43;;;7.60;;
26822;SDS011;14852;51.910;8.878;2022-08-05T08:19:05;8.05;;;7.25;;
26822;SDS011;14852;51.910;8.878;2022-08-05T08:21:32;7.78;;;6.57;;
26822;SDS011;14852;51.910;8.878;2022-08-05T08:23:58;7.63;;;6.72;;
26822;SDS011;14852;51.910;8.878;2022-08-05T08:26:24;7.32;;;6.60;;
26822;SDS011;14852;51.910;8.878;2022-08-05T08:28:51;7.30;;;6.57;;
26822;SDS011;14852;51.910;8.878;2022-08-05T08:31:21;7.32;;;6.47;;
26822;SDS011;14852;51.910;8.878;2022-08-05T08:33:46;7.20;;;6.40;;
26822;SDS011;14852;51.910;8.878;2022-08-05T08:36:12;7.90;;;6.47;;
26822;SDS011;14852;51.910;8.878;2022-08-05T08:38:38;8.40;;;6.40;;
26822;SDS011;14852;51.910;8.878;2022-08-05T08:41:05;7.80;;;6.25;;
26822;SDS011;14852;51.910;8.878;2022-08-05T08:43:34;10.18;;;7.15;;
26822;SDS011;14852;51.910;8.878;2022-08-05T08:46:02;8.30;;;6.05;;
26822;SDS011;14852;51.910;8.878;2022-08-05T08:48:28;8.25;;;6.78;;
26822;SDS011;14852;51.910;8.878;2022-08-05T08:50:56;6.65;;;5.53;;
26822;SDS011;14852;51.910;8.878;2022-08-05T08:53:24;7.55;;;6.10;;
26822;SDS011;14852;51.910;8.878;2022-08-05T08:55:53;12.02;;;6.55;;
26822;SDS011;14852;51.910;8.878;2022-08-05T08:58:19;8.68;;;6.32;;
26822;SDS011;14852;51.910;8.878;2022-08-05T09:00:45;8.77;;;6.38;;
26822;SDS011;14852;51.910;8.878;2022-08-05T09:03:12;10.23;;;7.22;;
26822;SDS011;14852;51.910;8.878;2022-08-05T09:05:38;8.60;;;6.78;;
26822;SDS011;14852;51.910;8.878;2022-08-05T09:08:04;7.00;;;6.25;;
26822;SDS011;14852;51.910;8.878;2022-08-05T09:10:30;12.10;;;6.78;;
26822;SDS011;14852;51.910;8.878;2022-08-05T09:12:56;8.02;;;7.22;;
26822;SDS011;14852;51.910;8.878;2022-08-05T09:15:22;9.13;;;7.07;;
26822;SDS011;14852;51.910;8.878;2022-08-05T09:17:48;11.77;;;8.55;;
26822;SDS011;14852;51.910;8.878;2022-08-05T09:20:15;8.57;;;7.75;;
26822;SDS011;14852;51.910;8.878;2022-08-05T09:25:30;8.82;;;7.28;;
26822;SDS011;14852;51.910;8.878;2022-08-05T09:28:04;8.50;;;7.68;;
26822;SDS011;14852;51.910;8.878;2022-08-05T09:30:40;9.63;;;8.73;;
26822;SDS011;14852;51.910;8.878;2022-08-05T09:33:21;9.10;;;8.20;;
26822;SDS011;14852;51.910;8.878;2022-08-05T09:35:55;9.95;;;8.95;;
26822;SDS011;14852;51.910;8.878;2022-08-05T09:38:25;10.63;;;9.48;;
26822;SDS011;14852;51.910;8.878;2022-08-05T09:40:53;10.15;;;9.15;;
26822;SDS011;14852;51.910;8.878;2022-08-05T09:45:55;11.32;;;9.98;;
26822;SDS011;14852;51.910;8.878;2022-08-05T09:48:29;11.18;;;9.75;;
26822;SDS011;14852;51.910;8.878;2022-08-05T09:50:58;8.57;;;7.72;;
26822;SDS011;14852;51.910;8.878;2022-08-05T09:53:51;7.50;;;6.80;;
26822;SDS011;14852;51.910;8.878;2022-08-05T09:56:27;7.78;;;6.22;;
26822;SDS011;14852;51.910;8.878;2022-08-05T09:58:59;6.03;;;5.20;;
26822;SDS011;14852;51.910;8.878;2022-08-05T10:01:30;6.57;;;5.30;;
26822;SDS011;14852;51.910;8.878;2022-08-05T10:04:09;5.70;;;4.57;;
26822;SDS011;14852;51.910;8.878;2022-08-05T10:06:56;6.07;;;5.18;;
26822;SDS011;14852;51.910;8.878;2022-08-05T10:09:22;5.05;;;3.95;;
26822;SDS011;14852;51.910;8.878;2022-08-05T10:11:48;4.97;;;4.10;;
26822;SDS011;14852;51.910;8.878;2022-08-05T10:14:24;4.10;;;3.53;;
26822;SDS011;14852;51.910;8.878;2022-08-05T10:16:52;5.07;;;4.53;;
26822;SDS011;14852;51.910;8.878;2022-08-05T10:19:20;7.32;;;4.43;;
26822;SDS011;14852;51.910;8.878;2022-08-05T10:21:48;7.78;;;5.32;;
26822;SDS011;14852;51.910;8.878;2022-08-05T10:24:15;7.13;;;4.78;;
26822;SDS011;14852;51.910;8.878;2022-08-05T10:26:44;9.75;;;5.57;;
26822;SDS011;14852;51.910;8.878;2022-08-05T10:29:12;6.68;;;6.00;;
26822;SDS011;14852;51.910;8.878;2022-08-05T10:31:38;6.20;;;5.13;;
26822;SDS011;14852;51.910;8.878;2022-08-05T10:34:05;7.07;;;6.22;;
26822;SDS011;14852;51.910;8.878;2022-08-05T10:36:34;6.47;;;5.85;;
26822;SDS011;14852;51.910;8.878;2022-08-05T10:39:04;7.97;;;5.90;;
26822;SDS011;14852;51.910;8.878;2022-08-05T10:42:09;7.15;;;6.45;;
26822;SDS011;14852;51.910;8.878;2022-08-05T10:44:43;6.20;;;5.60;;
26822;SDS011;14852;51.910;8.878;2022-08-05T10:47:11;6.03;;;5.50;;
26822;SDS011;14852;51.910;8.878;2022-08-05T10:52:50;6.18;;;5.55;;
26822;SDS011;14852;51.910;8.878;2022-08-05T10:55:25;8.40;;;6.30;;
26822;SDS011;14852;51.910;8.878;2022-08-05T10:58:07;6.22;;;5.05;;
26822;SDS011;14852;51.910;8.878;2022-08-05T11:05:34;6.88;;;5.22;;
26822;SDS011;14852;51.910;8.878;2022-08-05T11:08:05;6.20;;;5.45;;
26822;SDS011;14852;51.910;8.878;2022-08-05T11:13:02;5.68;;;5.07;;
26822;SDS011;14852;51.910;8.878;2022-08-05T11:15:36;7.20;;;5.63;;
26822;SDS011;14852;51.910;8.878;2022-08-05T11:18:21;5.60;;;4.70;;
26822;SDS011;14852;51.910;8.878;2022-08-05T11:20:52;5.93;;;5.32;;
26822;SDS011;14852;51.910;8.878;2022-08-05T11:23:35;5.60;;;4.60;;
26822;SDS011;14852;51.910;8.878;2022-08-05T11:28:49;7.45;;;5.35;;
26822;SDS011;14852;51.910;8.878;2022-08-05T11:31:17;6.88;;;4.78;;
26822;SDS011;14852;51.910;8.878;2022-08-05T11:33:56;4.45;;;4.10;;
26822;SDS011;14852;51.910;8.878;2022-08-05T11:36:39;4.70;;;4.22;;
26822;SDS011;14852;51.910;8.878;2022-08-05T11:40:01;4.97;;;3.97;;
26822;SDS011;14852;51.910;8.878;2022-08-05T11:42:14;5.88;;;4.30;;
26822;SDS011;14852;51.910;8.878;2022-08-05T11:44:41;5.32;;;4.28;;
26822;SDS011;14852;51.910;8.878;2022-08-05T11:47:07;5.45;;;3.63;;
26822;SDS011;14852;51.910;8.878;2022-08-05T11:49:34;5.75;;;3.90;;
26822;SDS011;14852;51.910;8.878;2022-08-05T11:51:59;4.30;;;3.63;;
26822;SDS011;14852;51.910;8.878;2022-08-05T11:54:29;6.53;;;4.10;;
26822;SDS011;14852;51.910;8.878;2022-08-05T11:56:58;3.83;;;3.42;;
26822;SDS011;14852;51.910;8.878;2022-08-05T11:59:27;6.10;;;3.35;;
26822;SDS011;14852;51.910;8.878;2022-08-05T12:02:04;6.07;;;3.85;;
26822;SDS011;14852;51.910;8.878;2022-08-05T12:07:13;4.53;;;3.40;;
26822;SDS011;14852;51.910;8.878;2022-08-05T12:09:43;6.65;;;2.80;;
26822;SDS011;14852;51.910;8.878;2022-08-05T12:12:19;5.03;;;2.92;;
26822;SDS011;14852;51.910;8.878;2022-08-05T12:14:51;3.75;;;2.42;;
26822;SDS011;14852;51.910;8.878;2022-08-05T12:17:17;2.50;;;2.15;;
26822;SDS011;14852;51.910;8.878;2022-08-05T12:19:45;2.95;;;2.22;;
26822;SDS011;14852;51.910;8.878;2022-08-05T12:22:18;3.05;;;2.33;;
26822;SDS011;14852;51.910;8.878;2022-08-05T12:24:49;3.78;;;2.13;;
26822;SDS011;14852;51.910;8.878;2022-08-05T12:27:23;3.10;;;2.25;;
26822;SDS011;14852;51.910;8.878;2022-08-05T12:30:00;6.47;;;2.85;;
26822;SDS011;14852;51.910;8.878;2022-08-05T12:32:32;5.78;;;2.80;;
26822;SDS011;14852;51.910;8.878;2022-08-05T12:35:09;2.83;;;2.35;;
26822;SDS011;14852;51.910;8.878;2022-08-05T12:37:39;5.00;;;2.20;;
26822;SDS011;14852;51.910;8.878;2022-08-05T12:40:07;3.10;;;2.13;;
26822;SDS011;14852;51.910;8.878;2022-08-05T12:42:34;2.70;;;1.77;;
26822;SDS011;14852;51.910;8.878;2022-08-05T12:45:04;2.58;;;1.95;;
26822;SDS011;14852;51.910;8.878;2022-08-05T12:47:32;4.03;;;2.55;;
26822;SDS011;14852;51.910;8.878;2022-08-05T12:49:58;2.47;;;1.92;;
26822;SDS011;14852;51.910;8.878;2022-08-05T12:52:35;2.72;;;2.08;;
26822;SDS011;14852;51.910;8.878;2022-08-05T12:55:14;2.67;;;1.80;;
26822;SDS011;14852;51.910;8.878;2022-08-05T12:57:47;2.63;;;2.20;;
26822;SDS011;14852;51.910;8.878;2022-08-05T13:00:20;3.10;;;2.80;;
26822;SDS011;14852;51.910;8.878;2022-08-05T13:02:49;4.18;;;2.75;;
26822;SDS011;14852;51.910;8.878;2022-08-05T13:05:16;3.22;;;2.70;;
26822;SDS011;14852;51.910;8.878;2022-08-05T13:07:42;3.88;;;3.47;;
26822;SDS011;14852;51.910;8.878;2022-08-05T13:10:11;4.00;;;3.38;;
26822;SDS011;14852;51.910;8.878;2022-08-05T13:12:40;3.67;;;3.17;;
26822;SDS011;14852;51.910;8.878;2022-08-05T13:15:08;3.50;;;2.65;;
26822;SDS011;14852;51.910;8.878;2022-08-05T13:17:36;3.65;;;2.78;;
26822;SDS011;14852;51.910;8.878;2022-08-05T13:20:04;3.28;;;2.72;;
26822;SDS011;14852;51.910;8.878;2022-08-05T13:22:50;2.97;;;2.33;;
26822;SDS011;14852;51.910;8.878;2022-08-05T13:25:17;4.00;;;2.95;;
26822;SDS011;14852;51.910;8.878;2022-08-05T13:30:16;3.70;;;2.63;;
26822;SDS011;14852;51.910;8.878;2022-08-05T13:32:45;2.67;;;2.47;;
26822;SDS011;14852;51.910;8.878;2022-08-05T13:35:12;3.10;;;2.63;;
26822;SDS011;14852;51.910;8.878;2022-08-05T13:37:41;2.80;;;2.15;;
26822;SDS011;14852;51.910;8.878;2022-08-05T13:40:09;4.43;;;2.67;;
26822;SDS011;14852;51.910;8.878;2022-08-05T13:42:35;3.38;;;1.70;;
26822;SDS011;14852;51.910;8.878;2022-08-05T13:45:02;2.50;;;2.30;;
26822;SDS011;14852;51.910;8.878;2022-08-05T13:47:28;2.30;;;2.10;;
26822;SDS011;14852;51.910;8.878;2022-08-05T13:49:54;3.10;;;2.50;;
26822;SDS011;14852;51.910;8.878;2022-08-05T13:52:21;4.15;;;2.10;;
26822;SDS011;14852;51.910;8.878;2022-08-05T13:54:50;4.68;;;1.95;;
26822;SDS011;14852;51.910;8.878;2022-08-05T13:57:17;2.88;;;2.00;;
26822;SDS011;14852;51.910;8.878;2022-08-05T13:59:44;2.20;;;2.00;;
26822;SDS011;14852;51.910;8.878;2022-08-05T14:02:10;2.50;;;2.10;;
26822;SDS011;14852;51.910;8.878;2022-08-05T14:04:38;2.97;;;2.00;;
26822;SDS011;14852;51.910;8.878;2022-08-05T14:07:29;3.33;;;2.17;;
26822;SDS011;14852;51.910;8.878;2022-08-05T14:10:02;2.72;;;2.25;;
26822;SDS011;14852;51.910;8.878;2022-08-05T14:12:43;3.30;;;2.17;;
26822;SDS011;14852;51.910;8.878;2022-08-05T14:15:09;2.70;;;2.30;;
26822;SDS011;14852;51.910;8.878;2022-08-05T14:17:37;3.53;;;2.10;;
26822;SDS011;14852;51.910;8.878;2022-08-05T14:20:04;2.58;;;1.80;;
26822;SDS011;14852;51.910;8.878;2022-08-05T14:22:31;2.65;;;2.00;;
26822;SDS011;14852;51.910;8.878;2022-08-05T14:24:57;2.00;;;1.75;;
26822;SDS011;14852;51.910;8.878;2022-08-05T14:27:23;3.47;;;1.80;;
26822;SDS011;14852;51.910;8.878;2022-08-05T14:29:49;2.15;;;1.77;;
26822;SDS011;14852;51.910;8.878;2022-08-05T14:32:15;2.20;;;1.90;;
26822;SDS011;14852;51.910;8.878;2022-08-05T14:34:41;2.78;;;2.05;;
26822;SDS011;14852;51.910;8.878;2022-08-05T14:37:07;2.10;;;1.67;;
26822;SDS011;14852;51.910;8.878;2022-08-05T14:39:33;3.53;;;1.90;;
26822;SDS011;14852;51.910;8.878;2022-08-05T14:41:59;4.80;;;2.28;;
26822;SDS011;14852;51.910;8.878;2022-08-05T14:44:25;4.00;;;2.10;;
26822;SDS011;14852;51.910;8.878;2022-08-05T14:46:51;2.67;;;2.17;;
26822;SDS011;14852;51.910;8.878;2022-08-05T14:49:16;4.93;;;2.45;;
26822;SDS011;14852;51.910;8.878;2022-08-05T14:51:42;3.47;;;2.30;;
26822;SDS011;14852;51.910;8.878;2022-08-05T14:54:08;3.78;;;2.30;;
26822;SDS011;14852;51.910;8.878;2022-08-05T14:56:35;3.35;;;2.25;;
26822;SDS011;14852;51.910;8.878;2022-08-05T14:59:01;2.38;;;1.63;;
26822;SDS011;14852;51.910;8.878;2022-08-05T15:01:27;3.20;;;1.90;;
26822;SDS011;14852;51.910;8.878;2022-08-05T15:03:52;2.65;;;1.98;;
26822;SDS011;14852;51.910;8.878;2022-08-05T15:06:18;2.10;;;1.85;;
26822;SDS011;14852;51.910;8.878;2022-08-05T15:08:44;4.10;;;1.95;;
26822;SDS011;14852;51.910;8.878;2022-08-05T15:11:10;2.45;;;1.90;;
26822;SDS011;14852;51.910;8.878;2022-08-05T15:13:36;4.28;;;1.80;;
26822;SDS011;14852;51.910;8.878;2022-08-05T15:16:02;2.30;;;1.77;;
26822;SDS011;14852;51.910;8.878;2022-08-05T15:18:29;2.75;;;1.70;;
26822;SDS011;14852;51.910;8.878;2022-08-05T15:20:55;2.38;;;1.70;;
26822;SDS011;14852;51.910;8.878;2022-08-05T15:23:21;3.15;;;1.80;;
26822;SDS011;14852;51.910;8.878;2022-08-05T15:25:47;3.25;;;1.60;;
26822;SDS011;14852;51.910;8.878;2022-08-05T15:28:12;2.35;;;1.63;;
26822;SDS011;14852;51.910;8.878;2022-08-05T15:30:39;2.10;;;1.63;;
26822;SDS011;14852;51.910;8.878;2022-08-05T15:33:05;2.50;;;1.50;;
26822;SDS011;14852;51.910;8.878;2022-08-05T15:35:31;1.92;;;1.48;;
26822;SDS011;14852;51.910;8.878;2022-08-05T15:37:57;2.45;;;1.75;;
26822;SDS011;14852;51.910;8.878;2022-08-05T15:40:23;2.95;;;2.03;;